createdAt,value
2018-10-02T00:02:17.442Z,10.30
2018-10-02T00:04:47.386Z,10.30
2018-10-02T00:07:17.198Z,10.23
2018-10-02T00:09:47.054Z,10.23
2018-10-02T00:12:22.033Z,10.26
2018-10-02T00:14:51.878Z,10.30
2018-10-02T00:17:21.619Z,10.30
2018-10-02T00:19:51.427Z,10.30
2018-10-02T00:22:21.213Z,10.31
2018-10-02T00:24:51.102Z,10.30
2018-10-02T00:27:20.850Z,10.28
2018-10-02T00:29:50.657Z,10.26
2018-10-02T00:32:20.593Z,10.26
2018-10-02T00:34:50.382Z,10.29
2018-10-02T00:37:20.228Z,10.30
2018-10-02T00:39:50.091Z,10.32
2018-10-02T00:42:19.950Z,10.33
2018-10-02T00:44:49.838Z,10.29
2018-10-02T00:47:20.415Z,10.26
2018-10-02T00:49:50.306Z,10.23
2018-10-02T00:52:20.077Z,10.22
2018-10-02T00:54:49.930Z,10.21
2018-10-02T00:57:19.773Z,10.22
2018-10-02T00:59:49.629Z,10.22
2018-10-02T01:02:19.463Z,10.21
2018-10-02T01:04:49.347Z,10.22
2018-10-02T01:07:19.151Z,10.19
2018-10-02T01:09:49.049Z,10.18
2018-10-02T01:12:18.793Z,10.17
2018-10-02T01:14:48.639Z,10.19
2018-10-02T01:17:18.447Z,10.17
2018-10-02T01:19:48.268Z,10.18
2018-10-02T01:22:18.056Z,10.18
2018-10-02T01:24:47.892Z,10.20
2018-10-02T01:27:17.713Z,10.20
2018-10-02T01:29:47.573Z,10.20
2018-10-02T01:32:17.333Z,10.18
2018-10-02T01:34:47.204Z,10.15
2018-10-02T01:37:17.132Z,10.13
2018-10-02T01:39:46.907Z,10.14
2018-10-02T01:42:16.650Z,10.23
2018-10-02T01:44:46.525Z,10.19
2018-10-02T01:47:16.418Z,10.18
2018-10-02T01:49:46.318Z,10.14
2018-10-02T01:52:16.038Z,10.07
2018-10-02T01:54:45.904Z,10.05
2018-10-02T01:57:15.791Z,10.06
2018-10-02T01:59:45.648Z,10.02
2018-10-02T02:02:15.474Z,10.02
2018-10-02T02:04:45.306Z,10.00
2018-10-02T02:07:15.144Z,9.98
2018-10-02T02:09:45.075Z,9.95
2018-10-02T02:12:14.916Z,9.89
2018-10-02T02:14:44.791Z,10.05
2018-10-02T02:17:14.665Z,10.18
2018-10-02T02:19:44.474Z,10.14
2018-10-02T02:22:14.286Z,10.07
2018-10-02T02:24:44.189Z,9.99
2018-10-02T02:27:13.978Z,9.96
2018-10-02T02:29:43.870Z,9.95
2018-10-02T02:32:13.663Z,9.97
2018-10-02T02:34:43.456Z,9.97
2018-10-02T02:37:13.311Z,9.98
2018-10-02T02:39:43.156Z,9.99
2018-10-02T02:42:13.059Z,9.98
2018-10-02T02:44:43.050Z,9.96
2018-10-02T02:47:18.122Z,9.93
2018-10-02T02:49:53.171Z,9.90
2018-10-02T02:52:24.345Z,9.90
2018-10-02T02:54:54.027Z,9.92
2018-10-02T02:57:23.832Z,9.92
2018-10-02T02:59:53.672Z,9.91
2018-10-02T03:02:23.417Z,9.88
2018-10-02T03:04:53.287Z,9.87
2018-10-02T03:07:23.174Z,9.87
2018-10-02T03:09:53.065Z,9.85
2018-10-02T03:12:22.846Z,9.82
2018-10-02T03:14:52.934Z,9.81
2018-10-02T03:17:22.815Z,9.81
2018-10-02T03:19:52.701Z,9.81
2018-10-02T03:22:22.478Z,9.80
2018-10-02T03:24:52.339Z,9.79
2018-10-02T03:27:22.214Z,9.77
2018-10-02T03:29:52.173Z,9.75
2018-10-02T03:32:21.958Z,9.75
2018-10-02T03:34:51.732Z,9.76
2018-10-02T03:37:21.569Z,9.75
2018-10-02T03:39:51.459Z,7.15
2018-10-02T03:42:21.383Z,9.70
2018-10-02T03:44:51.143Z,9.63
2018-10-02T03:47:20.998Z,9.63
2018-10-02T03:49:50.916Z,9.64
2018-10-02T03:52:20.707Z,9.66
2018-10-02T03:54:50.566Z,9.68
2018-10-02T03:57:20.477Z,9.69
2018-10-02T03:59:50.359Z,9.68
2018-10-02T04:02:20.245Z,9.63
2018-10-02T04:04:50.138Z,9.60
2018-10-02T04:07:20.203Z,9.59
2018-10-02T04:09:49.956Z,9.51
2018-10-02T04:12:19.802Z,9.49
2018-10-02T04:14:49.694Z,9.49
2018-10-02T04:17:19.593Z,9.50
2018-10-02T04:19:49.550Z,9.54
2018-10-02T04:22:19.393Z,9.54
2018-10-02T04:24:49.328Z,9.54
2018-10-02T04:27:19.270Z,9.54
2018-10-02T04:29:49.178Z,9.53
2018-10-02T04:32:19.126Z,9.54
2018-10-02T04:34:49.050Z,9.53
2018-10-02T04:37:18.881Z,9.53
2018-10-02T04:39:48.793Z,9.53
2018-10-02T04:42:18.678Z,9.53
2018-10-02T04:44:48.600Z,9.50
2018-10-02T04:47:18.527Z,9.46
2018-10-02T04:49:48.417Z,9.49
2018-10-02T04:52:18.353Z,9.46
2018-10-02T04:54:48.221Z,9.43
2018-10-02T04:57:18.098Z,9.42
2018-10-02T04:59:48.249Z,9.38
2018-10-02T05:02:18.021Z,9.40
2018-10-02T05:04:47.971Z,9.42
2018-10-02T05:07:17.781Z,9.43
2018-10-02T05:09:47.667Z,9.43
2018-10-02T05:12:17.399Z,9.41
2018-10-02T05:14:47.301Z,9.43
2018-10-02T05:17:17.207Z,9.42
2018-10-02T05:19:47.059Z,9.43
2018-10-02T05:22:16.838Z,9.45
2018-10-02T05:24:46.715Z,9.45
2018-10-02T05:27:16.669Z,9.43
2018-10-02T05:29:46.537Z,9.48
2018-10-02T05:32:16.322Z,9.44
2018-10-02T05:34:46.246Z,9.42
2018-10-02T05:37:16.247Z,9.43
2018-10-02T05:39:45.989Z,9.47
2018-10-02T05:42:15.827Z,9.51
2018-10-02T05:44:45.784Z,9.50
2018-10-02T05:47:15.707Z,9.49
2018-10-02T05:49:45.598Z,9.46
2018-10-02T05:52:15.355Z,9.48
2018-10-02T05:54:45.319Z,9.51
2018-10-02T05:57:15.306Z,9.53
2018-10-02T05:59:45.134Z,9.54
2018-10-02T06:02:16.488Z,9.57
2018-10-02T06:04:46.588Z,9.47
2018-10-02T06:07:16.490Z,9.43
2018-10-02T06:09:46.381Z,9.46
2018-10-02T06:12:16.158Z,9.47
2018-10-02T06:14:46.085Z,9.51
2018-10-02T06:17:16.085Z,9.56
2018-10-02T06:19:45.906Z,9.63
2018-10-02T06:22:15.803Z,9.69
2018-10-02T06:24:45.760Z,9.68
2018-10-02T06:27:15.888Z,9.72
2018-10-02T06:29:45.770Z,9.79
2018-10-02T06:32:15.697Z,9.95
2018-10-02T06:34:45.555Z,9.96
2018-10-02T06:37:15.529Z,9.95
2018-10-02T06:39:45.459Z,9.94
2018-10-02T06:42:15.404Z,9.93
2018-10-02T06:44:48.356Z,9.96
2018-10-02T06:47:18.208Z,9.95
2018-10-02T06:49:48.046Z,9.95
2018-10-02T06:52:18.085Z,9.98
2018-10-02T06:54:47.758Z,10.00
2018-10-02T06:57:17.686Z,9.98
2018-10-02T06:59:47.551Z,9.98
2018-10-02T07:02:17.517Z,10.04
2018-10-02T07:04:47.357Z,10.07
2018-10-02T07:07:17.274Z,10.11
2018-10-02T07:09:47.097Z,10.16
2018-10-02T07:12:16.931Z,10.21
2018-10-02T07:14:46.807Z,10.27
2018-10-02T07:17:16.577Z,10.35
2018-10-02T07:19:46.407Z,10.42
2018-10-02T07:22:16.377Z,10.45
2018-10-02T07:24:46.322Z,10.52
2018-10-02T07:27:16.403Z,10.57
2018-10-02T07:29:46.119Z,10.59
2018-10-02T07:32:16.027Z,10.62
2018-10-02T07:34:46.000Z,10.65
2018-10-02T07:37:15.871Z,10.70
2018-10-02T07:39:45.794Z,10.69
2018-10-02T07:42:15.647Z,10.69
2018-10-02T07:44:45.789Z,10.72
2018-10-02T07:47:15.627Z,10.71
2018-10-02T07:49:45.818Z,10.73
2018-10-02T07:52:15.661Z,10.79
2018-10-02T07:54:45.635Z,10.80
2018-10-02T07:57:15.598Z,10.87
2018-10-02T07:59:45.691Z,10.83
2018-10-02T08:02:15.354Z,10.86
2018-10-02T08:04:45.286Z,10.88
2018-10-02T08:07:15.086Z,10.90
2018-10-02T08:09:45.034Z,10.94
2018-10-02T08:12:14.991Z,11.05
2018-10-02T08:14:44.837Z,11.21
2018-10-02T08:17:14.748Z,11.34
2018-10-02T08:19:44.556Z,11.55
2018-10-02T08:22:14.437Z,11.67
2018-10-02T08:24:44.333Z,11.83
2018-10-02T08:27:14.253Z,11.87
2018-10-02T08:29:44.147Z,11.96
2018-10-02T08:32:13.887Z,11.96
2018-10-02T08:34:43.749Z,12.09
2018-10-02T08:37:13.639Z,12.26
2018-10-02T08:39:43.558Z,12.37
2018-10-02T08:42:13.514Z,12.50
2018-10-02T08:44:43.370Z,12.67
2018-10-02T08:47:13.198Z,12.93
2018-10-02T08:49:43.072Z,13.22
2018-10-02T08:52:12.999Z,13.48
2018-10-02T08:54:42.881Z,13.67
2018-10-02T08:57:12.797Z,13.74
2018-10-02T08:59:42.800Z,13.87
2018-10-02T09:02:12.629Z,14.16
2018-10-02T09:04:42.545Z,14.41
2018-10-02T09:07:12.469Z,14.67
2018-10-02T09:09:42.274Z,14.97
2018-10-02T09:12:12.087Z,15.07
2018-10-02T09:14:41.941Z,15.25
2018-10-02T09:17:11.869Z,15.21
2018-10-02T09:19:41.816Z,15.18
2018-10-02T09:22:11.696Z,15.23
2018-10-02T09:24:41.704Z,15.19
2018-10-02T09:27:11.610Z,15.03
2018-10-02T09:29:46.781Z,14.87
2018-10-02T09:32:21.775Z,14.77
2018-10-02T09:34:56.643Z,14.88
2018-10-02T09:37:31.910Z,14.89
2018-10-02T09:40:06.825Z,14.88
2018-10-02T09:42:41.704Z,14.90
2018-10-02T09:45:11.492Z,14.76
2018-10-02T09:47:41.434Z,14.65
2018-10-02T09:50:11.567Z,14.53
2018-10-02T09:52:41.585Z,14.42
2018-10-02T09:55:11.537Z,14.38
2018-10-02T09:57:41.357Z,14.29
2018-10-02T10:00:15.393Z,14.12
2018-10-02T10:02:45.553Z,13.96
2018-10-02T10:05:15.410Z,14.11
2018-10-02T10:07:45.309Z,14.26
2018-10-02T10:10:15.252Z,14.34
2018-10-02T10:12:45.346Z,14.47
2018-10-02T10:15:15.335Z,14.30
2018-10-02T10:17:45.293Z,14.27
2018-10-02T10:20:15.236Z,14.09
2018-10-02T10:22:45.124Z,13.98
2018-10-02T10:25:15.104Z,13.96
2018-10-02T10:27:44.971Z,13.99
2018-10-02T10:30:14.897Z,13.97
2018-10-02T10:32:44.813Z,13.92
2018-10-02T10:35:14.675Z,13.78
2018-10-02T10:37:44.654Z,13.66
2018-10-02T10:40:14.543Z,13.68
2018-10-02T10:42:44.421Z,13.82
2018-10-02T10:45:14.422Z,13.96
2018-10-02T10:47:44.418Z,14.22
2018-10-02T10:50:14.284Z,14.42
2018-10-02T10:52:44.200Z,14.48
2018-10-02T10:55:31.208Z,14.70
2018-10-02T10:58:01.080Z,14.87
2018-10-02T11:00:31.063Z,14.97
2018-10-02T11:03:00.871Z,15.21
2018-10-02T11:05:30.779Z,15.16
2018-10-02T11:08:00.726Z,15.09
2018-10-02T11:10:30.597Z,14.95
2018-10-02T11:13:00.480Z,14.96
2018-10-02T11:15:31.779Z,14.99
2018-10-02T11:18:02.028Z,15.10
2018-10-02T11:20:35.538Z,15.26
2018-10-02T11:23:05.498Z,15.51
2018-10-02T11:25:35.450Z,15.77
2018-10-02T11:28:05.439Z,15.72
2018-10-02T11:30:35.422Z,15.60
2018-10-02T11:33:05.324Z,15.50
2018-10-02T11:35:35.274Z,15.24
2018-10-02T11:38:05.010Z,14.84
2018-10-02T11:40:34.975Z,14.31
2018-10-02T11:43:04.831Z,13.98
2018-10-02T11:45:34.778Z,13.77
2018-10-02T11:48:04.629Z,13.69
2018-10-02T11:50:34.609Z,13.69
2018-10-02T11:53:04.873Z,13.85
2018-10-02T11:55:34.879Z,14.09
2018-10-02T11:58:04.695Z,14.22
2018-10-02T12:00:34.744Z,14.51
2018-10-02T12:03:04.662Z,14.74
2018-10-02T12:05:34.556Z,14.64
2018-10-02T12:08:04.503Z,14.60
2018-10-02T12:10:34.419Z,14.54
2018-10-02T12:13:04.469Z,14.23
2018-10-02T12:15:34.342Z,13.98
2018-10-02T12:18:04.179Z,13.76
2018-10-02T12:20:34.097Z,13.59
2018-10-02T12:23:03.899Z,13.52
2018-10-02T12:25:33.927Z,13.62
2018-10-02T12:28:03.803Z,13.78
2018-10-02T12:30:33.767Z,13.72
2018-10-02T12:33:03.697Z,13.60
2018-10-02T12:35:34.230Z,13.50
2018-10-02T12:38:04.158Z,13.54
2018-10-02T12:40:34.100Z,13.60
2018-10-02T12:43:04.057Z,13.59
2018-10-02T12:45:33.909Z,13.64
2018-10-02T12:48:06.737Z,13.75
2018-10-02T12:50:36.622Z,13.74
2018-10-02T12:53:06.622Z,13.94
2018-10-02T12:55:36.822Z,14.01
2018-10-02T12:58:06.858Z,14.16
2018-10-02T13:00:36.808Z,14.13
2018-10-02T13:03:06.685Z,14.04
2018-10-02T13:05:36.570Z,13.96
2018-10-02T13:08:06.481Z,13.81
2018-10-02T13:10:36.435Z,13.92
2018-10-02T13:13:06.543Z,13.90
2018-10-02T13:15:36.233Z,13.94
2018-10-02T13:18:06.137Z,13.93
2018-10-02T13:20:35.986Z,13.90
2018-10-02T13:23:05.933Z,13.99
2018-10-02T13:25:35.954Z,14.08
2018-10-02T13:28:05.764Z,14.09
2018-10-02T13:30:35.595Z,13.89
2018-10-02T13:33:05.799Z,13.85
2018-10-02T13:35:35.714Z,13.83
2018-10-02T13:38:05.719Z,13.84
2018-10-02T13:40:35.608Z,13.85
2018-10-02T13:43:05.468Z,13.84
2018-10-02T13:45:35.293Z,13.87
2018-10-02T13:48:05.119Z,13.82
2018-10-02T13:50:35.008Z,13.84
2018-10-02T13:53:04.791Z,13.69
2018-10-02T13:55:34.580Z,13.59
2018-10-02T13:58:04.470Z,13.43
2018-10-02T14:00:34.283Z,13.32
2018-10-02T14:03:04.082Z,13.26
2018-10-02T14:05:33.930Z,13.20
2018-10-02T14:08:03.888Z,13.22
2018-10-02T14:10:33.787Z,13.18
2018-10-02T14:13:03.692Z,13.00
2018-10-02T14:15:33.598Z,13.04
2018-10-02T14:18:03.491Z,12.95
2018-10-02T14:20:33.355Z,13.01
2018-10-02T14:23:03.273Z,13.21
2018-10-02T14:25:33.182Z,13.19
2018-10-02T14:28:03.166Z,13.13
2018-10-02T14:30:33.006Z,13.13
2018-10-02T14:33:03.932Z,13.04
2018-10-02T14:35:33.819Z,13.09
2018-10-02T14:38:03.764Z,13.06
2018-10-02T14:40:33.651Z,13.17
2018-10-02T14:43:03.781Z,13.12
2018-10-02T14:45:33.671Z,13.25
2018-10-02T14:48:03.637Z,13.13
2018-10-02T14:50:33.547Z,13.10
2018-10-02T14:53:03.475Z,13.23
2018-10-02T14:55:33.294Z,13.30
2018-10-02T14:58:03.167Z,13.11
2018-10-02T15:00:33.564Z,12.94
2018-10-02T15:03:03.433Z,12.82
2018-10-02T15:05:33.319Z,12.84
2018-10-02T15:08:03.215Z,12.87
2018-10-02T15:10:33.139Z,12.90
2018-10-02T15:13:04.062Z,12.80
2018-10-02T15:15:34.031Z,9.49
2018-10-02T15:18:03.986Z,12.85
2018-10-02T15:20:33.830Z,12.74
2018-10-02T15:23:03.775Z,12.65
2018-10-02T15:25:33.761Z,12.58
2018-10-02T15:28:03.632Z,12.67
2018-10-02T15:30:33.512Z,12.62
2018-10-02T15:33:03.520Z,12.52
2018-10-02T15:35:33.447Z,12.42
2018-10-02T15:38:03.429Z,12.38
2018-10-02T15:40:33.323Z,12.34
2018-10-02T15:43:03.305Z,12.42
2018-10-02T15:45:33.211Z,12.40
2018-10-02T15:48:03.143Z,12.33
2018-10-02T15:50:32.965Z,12.27
2018-10-02T15:53:03.882Z,12.18
2018-10-02T15:55:33.724Z,12.13
2018-10-02T15:58:03.689Z,12.02
2018-10-02T16:00:33.539Z,11.92
2018-10-02T16:03:03.458Z,11.81
2018-10-02T16:05:33.263Z,11.71
2018-10-02T16:08:03.224Z,11.61
2018-10-02T16:10:33.187Z,11.66
2018-10-02T16:13:03.025Z,11.76
2018-10-02T16:15:32.922Z,11.84
2018-10-02T16:18:02.909Z,11.98
2018-10-02T16:20:32.864Z,12.00
2018-10-02T16:23:03.868Z,12.04
2018-10-02T16:25:33.964Z,12.05
2018-10-02T16:28:03.846Z,12.08
2018-10-02T16:30:33.758Z,12.08
2018-10-02T16:33:03.678Z,12.03
2018-10-02T16:35:33.559Z,12.01
2018-10-02T16:38:03.437Z,11.93
2018-10-02T16:40:33.283Z,11.86
2018-10-02T16:43:03.165Z,11.66
2018-10-02T16:45:33.176Z,11.47
2018-10-02T16:48:03.152Z,11.33
2018-10-02T16:50:32.951Z,11.08
2018-10-02T16:53:03.857Z,10.87
2018-10-02T16:55:33.783Z,10.68
2018-10-02T16:58:03.729Z,10.49
2018-10-02T17:00:33.655Z,10.35
2018-10-02T17:03:03.519Z,10.08
2018-10-02T17:05:33.564Z,10.03
2018-10-02T17:08:03.415Z,9.99
2018-10-02T17:10:33.357Z,9.95
2018-10-02T17:13:03.273Z,9.86
2018-10-02T17:15:33.122Z,9.63
2018-10-02T17:18:03.047Z,9.65
2018-10-02T17:20:32.886Z,9.64
2018-10-02T17:23:02.830Z,9.66
2018-10-02T17:25:32.745Z,9.55
2018-10-02T17:28:02.569Z,9.51
2018-10-02T17:30:32.453Z,9.46
2018-10-02T17:33:02.311Z,9.41
2018-10-02T17:35:32.183Z,9.40
2018-10-02T17:38:02.102Z,9.40
2018-10-02T17:40:31.927Z,9.28
2018-10-02T17:43:01.753Z,9.21
2018-10-02T17:45:31.824Z,9.24
2018-10-02T17:48:01.783Z,9.26
2018-10-02T17:50:31.675Z,9.21
2018-10-02T17:53:01.450Z,9.21
2018-10-02T17:55:31.419Z,9.29
2018-10-02T17:58:01.286Z,9.19
2018-10-02T18:00:31.350Z,9.15
2018-10-02T18:03:01.179Z,9.12
2018-10-02T18:05:31.152Z,8.97
2018-10-02T18:08:00.999Z,8.86
2018-10-02T18:10:30.842Z,8.95
2018-10-02T18:13:00.691Z,8.88
2018-10-02T18:15:30.864Z,8.88
2018-10-02T18:18:00.698Z,8.75
2018-10-02T18:20:30.771Z,8.80
2018-10-02T18:23:00.755Z,8.72
2018-10-02T18:25:31.096Z,8.58
2018-10-02T18:28:01.059Z,8.53
2018-10-02T18:30:30.827Z,8.55
2018-10-02T18:33:00.825Z,8.49
2018-10-02T18:35:30.651Z,8.43
2018-10-02T18:38:00.960Z,8.44
2018-10-02T18:40:30.916Z,8.44
2018-10-02T18:43:00.768Z,8.41
2018-10-02T18:45:31.399Z,8.42
2018-10-02T18:48:01.412Z,8.42
2018-10-02T18:50:31.285Z,8.43
2018-10-02T18:53:01.153Z,8.39
2018-10-02T18:55:31.659Z,8.40
2018-10-02T18:58:01.932Z,8.40
2018-10-02T19:00:33.082Z,8.35
2018-10-02T19:03:03.346Z,8.35
2018-10-02T19:05:33.805Z,8.28
2018-10-02T19:08:04.283Z,8.23
2018-10-02T19:10:34.463Z,8.15
2018-10-02T19:13:04.731Z,8.16
2018-10-02T19:15:39.928Z,8.13
2018-10-02T19:18:10.348Z,8.05
2018-10-02T19:20:45.617Z,8.04
2018-10-02T19:23:15.976Z,8.06
2018-10-02T19:25:51.495Z,7.98
2018-10-02T19:28:30.621Z,7.94
2018-10-02T19:31:05.817Z,7.95
2018-10-02T19:33:36.348Z,7.93
2018-10-02T19:36:07.319Z,7.83
2018-10-02T19:38:42.458Z,7.75
2018-10-02T19:41:13.014Z,7.76
2018-10-02T19:43:44.110Z,7.81
2018-10-02T19:46:19.963Z,7.84
2018-10-02T19:48:50.677Z,7.89
2018-10-02T19:51:26.071Z,7.90
2018-10-02T19:53:56.327Z,7.89
2018-10-02T19:56:27.271Z,7.92
2018-10-02T19:58:57.862Z,7.93
2018-10-02T20:01:28.969Z,7.88
2018-10-02T20:03:59.459Z,7.84
2018-10-02T20:06:30.571Z,7.81
2018-10-02T20:09:01.028Z,7.79
2018-10-02T20:11:32.184Z,7.79
2018-10-02T20:14:02.011Z,7.81
2018-10-02T20:16:32.818Z,7.79
2018-10-02T20:19:02.813Z,7.73
2018-10-02T20:21:33.040Z,7.66
2018-10-02T20:24:03.197Z,7.57
2018-10-02T20:26:33.700Z,7.52
2018-10-02T20:29:04.497Z,7.47
2018-10-02T20:31:38.169Z,7.44
2018-10-02T20:34:08.655Z,7.40
2018-10-02T20:36:39.102Z,7.38
2018-10-02T20:39:11.185Z,7.38
2018-10-02T20:41:41.413Z,7.37
2018-10-02T20:44:11.607Z,7.41
2018-10-02T20:46:42.331Z,7.41
2018-10-02T20:49:12.183Z,7.38
2018-10-02T20:51:41.962Z,7.34
2018-10-02T20:54:11.817Z,7.29
2018-10-02T20:56:41.605Z,7.27
2018-10-02T20:59:11.409Z,7.26
2018-10-02T21:01:41.273Z,7.28
2018-10-02T21:04:11.241Z,7.29
2018-10-02T21:06:41.015Z,7.30
2018-10-02T21:09:10.916Z,7.26
2018-10-02T21:11:40.735Z,7.20
2018-10-02T21:14:10.730Z,7.17
2018-10-02T21:16:40.533Z,7.16
2018-10-02T21:19:10.349Z,7.13
2018-10-02T21:21:40.190Z,7.07
2018-10-02T21:24:10.155Z,7.07
2018-10-02T21:26:39.913Z,7.11
2018-10-02T21:29:09.781Z,7.10
2018-10-02T21:31:39.696Z,7.16
2018-10-02T21:34:09.577Z,7.14
2018-10-02T21:36:39.402Z,7.11
2018-10-02T21:39:10.034Z,7.12
2018-10-02T21:41:39.905Z,7.12
2018-10-02T21:44:09.759Z,7.14
2018-10-02T21:46:39.590Z,7.18
2018-10-02T21:49:09.368Z,7.14
2018-10-02T21:51:39.239Z,7.15
2018-10-02T21:54:09.120Z,7.20
2018-10-02T21:56:38.903Z,7.24
2018-10-02T21:59:08.689Z,7.29
2018-10-02T22:01:38.771Z,7.33
2018-10-02T22:04:08.622Z,7.38
2018-10-02T22:06:38.322Z,7.43
2018-10-02T22:09:09.821Z,7.46
2018-10-02T22:11:39.557Z,7.55
2018-10-02T22:14:09.371Z,7.63
2018-10-02T22:16:39.146Z,7.67
2018-10-02T22:19:09.001Z,7.72
2018-10-02T22:21:40.641Z,7.72
2018-10-02T22:24:10.370Z,7.62
2018-10-02T22:26:40.130Z,7.58
2018-10-02T22:29:09.950Z,7.52
2018-10-02T22:31:39.831Z,7.51
2018-10-02T22:34:09.647Z,7.51
2018-10-02T22:36:39.371Z,7.50
2018-10-02T22:39:09.997Z,7.51
2018-10-02T22:41:40.051Z,7.54
2018-10-02T22:44:09.861Z,7.55
2018-10-02T22:46:39.624Z,7.57
2018-10-02T22:49:09.472Z,7.61
2018-10-02T22:51:39.256Z,7.67
2018-10-02T22:54:09.073Z,7.70
2018-10-02T22:56:38.863Z,7.71
2018-10-02T22:59:08.683Z,7.71
2018-10-02T23:01:38.533Z,7.72
2018-10-02T23:04:08.619Z,7.69
2018-10-02T23:06:38.440Z,7.65
2018-10-02T23:09:10.952Z,7.64
2018-10-02T23:11:40.874Z,7.63
2018-10-02T23:14:10.956Z,7.65
2018-10-02T23:16:40.799Z,7.64
2018-10-02T23:19:11.676Z,7.63
2018-10-02T23:21:41.495Z,7.64
2018-10-02T23:24:11.311Z,7.67
2018-10-02T23:26:41.144Z,7.72
2018-10-02T23:29:11.281Z,7.74
2018-10-02T23:31:41.092Z,7.73
2018-10-02T23:34:10.912Z,7.74
2018-10-02T23:36:40.741Z,7.79
2018-10-02T23:39:10.794Z,7.78
2018-10-02T23:41:40.676Z,7.75
2018-10-02T23:44:10.480Z,7.70
2018-10-02T23:46:40.312Z,7.66
2018-10-02T23:49:10.292Z,7.60
2018-10-02T23:51:40.111Z,7.53
2018-10-02T23:54:10.015Z,7.48
2018-10-02T23:56:39.845Z,7.47
2018-10-02T23:59:09.716Z,7.42
